Time;durP1;ratioP1;P1;durP2;ratioP2;P2;SDS_P1;SDS_P2;PMS_P1;PMS_P2;Temp;Humidity;BMP_temperature;BMP_pressure;BME280_temperature;BME280_humidity;BME280_pressure;Samples;Min_cycle;Max_cycle;Signal;HPM_P1;HPM_P2
2024/02/18 00:02:00;;;;;;;;;;;;;;;11.22;100.00;103233.28;5099936;28;842;-81
2024/02/18 00:04:28;;;;;;;;;;;;;;;11.18;100.00;103237.88;5099750;28;933;-81
2024/02/18 00:06:54;;;;;;;;;;;;;;;11.20;100.00;103242.25;5100520;28;1275;-81
2024/02/18 00:09:20;;;;;;;;;;;;;;;11.31;100.00;103238.22;5115918;28;881;-80
2024/02/18 00:11:46;;;;;;;;;;;;;;;11.35;100.00;103245.19;5098344;28;936;-81
2024/02/18 00:14:12;;;;;;;;;;;;;;;11.46;100.00;103238.38;5099792;28;824;-81
2024/02/18 00:16:37;;;;;;;;;;;;;;;11.40;100.00;103235.09;5103956;28;1890;-81
2024/02/18 00:19:03;;;;;;;;;;;;;;;11.38;100.00;103229.78;5103452;28;811;-81
2024/02/18 00:21:29;;;;;;;;;;;;;;;11.21;100.00;103224.34;5103988;28;798;-81
2024/02/18 00:23:58;;;;;;;;;;;;;;;11.15;100.00;103227.28;5103648;28;755;-81
2024/02/18 00:26:25;;;;;;;;;;;;;;;11.20;100.00;103226.13;5103362;28;1184;-80
2024/02/18 00:28:51;;;;;;;;;;;;;;;11.33;100.00;103225.59;5103170;28;712;-81
2024/02/18 00:31:17;;;;;;;;;;;;;;;11.24;100.00;103216.13;5103596;28;953;-81
2024/02/18 00:33:43;;;;;;;;;;;;;;;11.31;100.00;103222.97;5102223;28;912;-81
2024/02/18 00:36:09;;;;;;;;;;;;;;;11.37;100.00;103214.63;5102767;28;1886;-81
2024/02/18 00:38:35;;;;;;;;;;;;;;;11.33;100.00;103209.47;5103156;28;863;-81
2024/02/18 00:41:08;;;;;;;;;;;;;;;11.44;100.00;103204.47;5103368;28;826;-81
2024/02/18 00:43:34;;;;;;;;;;;;;;;11.35;100.00;103200.38;5104295;28;540;-81
2024/02/18 00:46:00;;;;;;;;;;;;;;;11.37;100.00;103203.00;5102356;28;1263;-81
2024/02/18 00:48:26;;;;;;;;;;;;;;;11.40;100.00;103200.16;5103341;28;890;-81
2024/02/18 00:50:52;;;;;;;;;;;;;;;11.44;100.00;103197.28;5103589;28;868;-81
2024/02/18 00:53:19;;;;;;;;;;;;;;;11.35;100.00;103186.94;5104721;28;881;-81
2024/02/18 00:55:45;;;;;;;;;;;;;;;11.30;100.00;103183.59;5101904;28;1920;-81
2024/02/18 00:58:12;;;;;;;;;;;;;;;11.34;100.00;103181.66;5101525;28;770;-81
2024/02/18 01:00:41;;;;;;;;;;;;;;;11.38;100.00;103188.63;5102780;28;811;-81
2024/02/18 01:03:08;;;;;;;;;;;;;;;11.43;100.00;103190.16;5103139;28;822;-81
2024/02/18 01:05:34;;;;;;;;;;;;;;;11.39;100.00;103184.97;5102023;28;696;-80
2024/02/18 01:08:00;;;;;;;;;;;;;;;11.39;100.00;103177.78;5102699;28;1261;-80
2024/02/18 01:10:26;;;;;;;;;;;;;;;11.38;100.00;103172.50;5101710;28;873;-81
2024/02/18 01:12:52;;;;;;;;;;;;;;;11.44;100.00;103169.53;5101647;28;790;-81
2024/02/18 01:15:18;;;;;;;;;;;;;;;11.46;100.00;103170.31;5100661;28;788;-81
2024/02/18 01:17:44;;;;;;;;;;;;;;;11.42;100.00;103164.22;5100863;28;1947;-81
2024/02/18 01:20:10;;;;;;;;;;;;;;;11.47;100.00;103153.25;5102402;28;823;-81
2024/02/18 01:22:36;;;;;;;;;;;;;;;11.55;100.00;103153.75;5102375;28;807;-81
2024/02/18 01:25:03;;;;;;;;;;;;;;;11.49;100.00;103151.34;5101083;28;798;-81
2024/02/18 01:27:29;;;;;;;;;;;;;;;11.52;100.00;103139.63;5117875;28;1192;-81
2024/02/18 01:29:55;;;;;;;;;;;;;;;11.49;100.00;103145.97;5101772;28;881;-81
2024/02/18 01:32:21;;;;;;;;;;;;;;;11.53;100.00;103144.03;5101551;28;962;-80
2024/02/18 01:34:47;;;;;;;;;;;;;;;11.44;100.00;103134.59;5101455;28;739;-81
2024/02/18 01:37:13;;;;;;;;;;;;;;;11.43;100.00;103139.09;5101678;28;1890;-81
2024/02/18 01:39:39;;;;;;;;;;;;;;;11.43;100.00;103133.72;5102058;28;650;-81
2024/02/18 01:42:05;;;;;;;;;;;;;;;11.53;100.00;103130.59;5101587;28;846;-81
2024/02/18 01:44:32;;;;;;;;;;;;;;;11.51;100.00;103130.69;5100858;28;754;-80
2024/02/18 01:46:58;;;;;;;;;;;;;;;11.51;100.00;103125.31;5101295;28;1212;-81
2024/02/18 01:49:25;;;;;;;;;;;;;;;11.55;100.00;103115.25;5101799;28;877;-81
2024/02/18 01:51:51;;;;;;;;;;;;;;;11.63;100.00;103122.00;5101349;28;807;-81
2024/02/18 01:54:18;;;;;;;;;;;;;;;11.61;100.00;103126.59;5101064;28;751;-81
2024/02/18 01:56:45;;;;;;;;;;;;;;;11.65;100.00;103113.88;5100806;28;1969;-81
2024/02/18 01:59:12;;;;;;;;;;;;;;;11.60;100.00;103108.72;5101603;28;806;-81
2024/02/18 02:01:38;;;;;;;;;;;;;;;11.56;100.00;103098.19;5101939;28;901;-81
2024/02/18 02:04:05;;;;;;;;;;;;;;;11.63;100.00;103105.00;5101224;28;799;-81
2024/02/18 02:06:31;;;;;;;;;;;;;;;11.65;100.00;103103.13;5100959;28;1267;-80
2024/02/18 02:08:57;;;;;;;;;;;;;;;11.64;100.00;103104.06;5100850;28;803;-81
2024/02/18 02:11:23;;;;;;;;;;;;;;;11.69;100.00;103094.81;5099897;28;904;-81
2024/02/18 02:13:50;;;;;;;;;;;;;;;11.67;100.00;103102.09;5101162;28;877;-81
2024/02/18 02:16:17;;;;;;;;;;;;;;;11.75;100.00;103090.97;5101493;28;1890;-81
2024/02/18 02:18:43;;;;;;;;;;;;;;;11.85;100.00;103086.03;5101133;28;830;-81
2024/02/18 02:21:09;;;;;;;;;;;;;;;11.89;100.00;103085.78;5100989;28;802;-81
2024/02/18 02:23:35;;;;;;;;;;;;;;;11.89;100.00;103080.41;5101412;28;810;-80
2024/02/18 02:26:02;;;;;;;;;;;;;;;11.80;100.00;103080.91;5100277;28;1276;-81
2024/02/18 02:28:29;;;;;;;;;;;;;;;11.85;100.00;103076.13;5100919;28;932;-81
2024/02/18 02:30:56;;;;;;;;;;;;;;;11.90;100.00;103074.09;5101088;28;827;-81
2024/02/18 02:33:23;;;;;;;;;;;;;;;11.97;100.00;103069.28;5099656;28;976;-81
2024/02/18 02:35:49;;;;;;;;;;;;;;;11.94;100.00;103072.13;5115991;27;1209;-81
2024/02/18 02:38:15;;;;;;;;;;;;;;;12.01;100.00;103070.88;5100229;28;1967;-81
2024/02/18 02:40:41;;;;;;;;;;;;;;;11.97;100.00;103063.88;5100769;28;893;-81
2024/02/18 02:43:07;;;;;;;;;;;;;;;11.99;100.00;103057.47;5101006;28;786;-81
2024/02/18 02:45:33;;;;;;;;;;;;;;;11.90;100.00;103052.59;5116203;28;852;-81
2024/02/18 02:47:59;;;;;;;;;;;;;;;12.00;100.00;103063.75;5101306;28;1172;-81
2024/02/18 02:50:25;;;;;;;;;;;;;;;12.07;100.00;103057.97;5101060;28;815;-81
2024/02/18 02:52:51;;;;;;;;;;;;;;;12.09;100.00;103057.00;5099595;28;848;-81
2024/02/18 02:55:18;;;;;;;;;;;;;;;12.01;100.00;103052.91;5099481;28;835;-81
2024/02/18 02:57:44;;;;;;;;;;;;;;;12.04;100.00;103049.19;5100639;28;1870;-81
2024/02/18 03:00:10;;;;;;;;;;;;;;;12.06;100.00;103047.28;5100877;28;859;-81
2024/02/18 03:02:37;;;;;;;;;;;;;;;12.13;100.00;103045.16;5100759;28;901;-81
2024/02/18 03:05:04;;;;;;;;;;;;;;;12.12;100.00;103035.34;5100263;28;846;-81
2024/02/18 03:07:30;;;;;;;;;;;;;;;12.25;100.00;103037.28;5100366;28;1169;-81
2024/02/18 03:09:56;;;;;;;;;;;;;;;12.16;100.00;103031.53;5099494;28;818;-81
2024/02/18 03:12:22;;;;;;;;;;;;;;;12.16;100.00;103024.31;5098630;28;871;-81
2024/02/18 03:14:48;;;;;;;;;;;;;;;12.22;100.00;103028.53;5098754;28;787;-81
2024/02/18 03:17:14;;;;;;;;;;;;;;;12.24;100.00;103022.09;5115308;27;1968;-81
2024/02/18 03:19:41;;;;;;;;;;;;;;;12.22;100.00;103015.06;5099336;28;850;-81
2024/02/18 03:22:07;;;;;;;;;;;;;;;12.29;100.00;103012.00;5115737;28;807;-81
2024/02/18 03:24:33;;;;;;;;;;;;;;;12.32;100.00;103013.63;5099690;28;799;-81
2024/02/18 03:27:02;;;;;;;;;;;;;;;12.33;100.00;103008.16;5097846;28;1181;-81
2024/02/18 03:29:28;;;;;;;;;;;;;;;12.40;100.00;103008.72;5099270;28;936;-81
2024/02/18 03:31:55;;;;;;;;;;;;;;;12.38;100.00;102998.97;5099221;28;894;-81
2024/02/18 03:34:21;;;;;;;;;;;;;;;12.42;100.00;102996.03;5098531;28;810;-81
2024/02/18 03:36:47;;;;;;;;;;;;;;;12.34;100.00;102996.44;5115437;28;1898;-81
2024/02/18 03:39:13;;;;;;;;;;;;;;;12.40;100.00;102991.69;5115359;28;846;-81
2024/02/18 03:41:40;;;;;;;;;;;;;;;12.43;100.00;102994.22;5099112;28;720;-81
2024/02/18 03:44:06;;;;;;;;;;;;;;;12.43;100.00;102991.53;5097877;28;965;-81
2024/02/18 03:46:32;;;;;;;;;;;;;;;12.49;100.00;102984.00;5098704;28;1283;-81
2024/02/18 03:48:57;;;;;;;;;;;;;;;12.56;100.00;102988.06;5102392;28;866;-81
2024/02/18 03:51:23;;;;;;;;;;;;;;;12.58;100.00;102974.53;5101982;28;1273;-81
2024/02/18 03:53:49;;;;;;;;;;;;;;;12.49;100.00;102985.81;5101933;28;837;-81
2024/02/18 03:56:15;;;;;;;;;;;;;;;12.64;100.00;102974.19;5103059;28;1267;-81
2024/02/18 03:58:41;;;;;;;;;;;;;;;12.56;100.00;102960.28;5103840;28;941;-81
2024/02/18 04:01:07;;;;;;;;;;;;;;;12.58;100.00;102969.13;5103733;28;802;-81
2024/02/18 04:03:33;;;;;;;;;;;;;;;12.54;100.00;102956.81;5102024;28;856;-81
2024/02/18 04:05:59;;;;;;;;;;;;;;;12.60;100.00;102949.28;5103125;28;1197;-81
2024/02/18 04:08:25;;;;;;;;;;;;;;;12.52;100.00;102958.72;5119207;28;865;-81
2024/02/18 04:10:51;;;;;;;;;;;;;;;12.59;100.00;102944.84;5103591;28;897;-81
2024/02/18 04:13:17;;;;;;;;;;;;;;;12.63;100.00;102943.72;5103278;28;841;-81
2024/02/18 04:15:43;;;;;;;;;;;;;;;12.60;100.00;102943.03;5101346;28;1183;-81
2024/02/18 04:18:09;;;;;;;;;;;;;;;12.65;100.00;102940.94;5102169;28;1886;-81
2024/02/18 04:20:35;;;;;;;;;;;;;;;12.69;100.00;102933.56;5119233;27;861;-81
2024/02/18 04:23:02;;;;;;;;;;;;;;;12.56;100.00;102931.53;5101584;28;890;-81
2024/02/18 04:25:28;;;;;;;;;;;;;;;12.71;100.00;102920.88;5102414;28;799;-81
2024/02/18 04:27:54;;;;;;;;;;;;;;;12.73;100.00;102919.84;5103589;28;1271;-81
2024/02/18 04:30:20;;;;;;;;;;;;;;;12.83;100.00;102917.47;5103073;28;834;-81
2024/02/18 04:32:46;;;;;;;;;;;;;;;12.82;100.00;102924.69;5118626;27;981;-81
2024/02/18 04:35:12;;;;;;;;;;;;;;;12.78;100.00;102917.75;5101785;28;835;-81
2024/02/18 04:37:38;;;;;;;;;;;;;;;12.83;100.00;102912.09;5101508;28;1902;-81
2024/02/18 04:40:04;;;;;;;;;;;;;;;12.77;100.00;102912.44;5102990;28;811;-81
2024/02/18 04:42:30;;;;;;;;;;;;;;;12.75;100.00;102912.53;5102664;28;806;-81
2024/02/18 04:44:56;;;;;;;;;;;;;;;12.77;100.00;102920.50;5102262;28;1031;-81
2024/02/18 04:47:23;;;;;;;;;;;;;;;12.83;100.00;102910.28;5102968;28;1252;-81
2024/02/18 04:49:49;;;;;;;;;;;;;;;12.80;100.00;102904.19;5103342;28;858;-81
2024/02/18 04:52:15;;;;;;;;;;;;;;;12.82;100.00;102905.84;5118966;28;866;-81
2024/02/18 04:54:41;;;;;;;;;;;;;;;12.94;100.00;102901.56;5101993;28;893;-81
2024/02/18 04:57:07;;;;;;;;;;;;;;;12.65;100.00;102905.94;5102962;28;1897;-81
2024/02/18 04:59:36;;;;;;;;;;;;;;;12.83;100.00;102901.31;5101149;28;802;-81
2024/02/18 05:02:03;;;;;;;;;;;;;;;12.89;100.00;102899.16;5102930;28;838;-81
2024/02/18 05:04:31;;;;;;;;;;;;;;;12.91;100.00;102899.06;5102351;28;720;-81
2024/02/18 05:06:58;;;;;;;;;;;;;;;12.90;100.00;102894.63;5103041;28;1283;-81
2024/02/18 05:09:24;;;;;;;;;;;;;;;12.90;100.00;102894.63;5102965;28;885;-81
2024/02/18 05:11:50;;;;;;;;;;;;;;;12.85;100.00;102880.56;5102824;28;799;-81
2024/02/18 05:14:16;;;;;;;;;;;;;;;12.83;100.00;102882.47;5102239;28;838;-81
2024/02/18 05:16:43;;;;;;;;;;;;;;;12.94;100.00;102880.03;5102412;28;1953;-81
2024/02/18 05:19:09;;;;;;;;;;;;;;;12.86;100.00;102876.91;5102957;28;862;-81
2024/02/18 05:21:39;;;;;;;;;;;;;;;12.80;100.00;102869.19;5104561;28;791;-81
2024/02/18 05:24:06;;;;;;;;;;;;;;;12.85;100.00;102867.94;5101417;28;858;-81
2024/02/18 05:26:32;;;;;;;;;;;;;;;12.82;100.00;102856.50;5100780;28;1275;-81
2024/02/18 05:28:58;;;;;;;;;;;;;;;12.76;100.00;102856.84;5101961;28;823;-81
2024/02/18 05:31:25;;;;;;;;;;;;;;;12.82;100.00;102853.81;5101266;28;949;-81
2024/02/18 05:33:52;;;;;;;;;;;;;;;12.89;100.00;102849.81;5101556;28;968;-81
2024/02/18 05:36:20;;;;;;;;;;;;;;;12.98;100.00;102857.34;5100847;28;1280;-81
2024/02/18 05:38:46;;;;;;;;;;;;;;;12.86;100.00;102848.13;5101242;28;1949;-81
2024/02/18 05:41:12;;;;;;;;;;;;;;;12.90;100.00;102847.03;5101089;28;870;-81
2024/02/18 05:43:38;;;;;;;;;;;;;;;12.95;100.00;102843.19;5100058;28;819;-81
2024/02/18 05:46:07;;;;;;;;;;;;;;;12.89;100.00;102837.22;5101166;28;1267;-81
2024/02/18 05:48:33;;;;;;;;;;;;;;;12.86;100.00;102837.38;5100972;28;731;-81
2024/02/18 05:50:59;;;;;;;;;;;;;;;12.93;100.00;102832.50;5101780;28;888;-81
2024/02/18 05:53:25;;;;;;;;;;;;;;;12.96;100.00;102839.53;5101332;28;905;-81
2024/02/18 05:55:53;;;;;;;;;;;;;;;13.06;100.00;102819.16;5100567;28;1263;-81
2024/02/18 05:58:20;;;;;;;;;;;;;;;12.97;100.00;102823.25;5100995;28;1901;-81
2024/02/18 06:00:46;;;;;;;;;;;;;;;13.03;100.00;102814.84;5100766;28;893;-81
2024/02/18 06:03:12;;;;;;;;;;;;;;;12.94;100.00;102809.97;5100831;28;882;-81
2024/02/18 06:05:38;;;;;;;;;;;;;;;12.97;100.00;102807.09;5100069;28;783;-81
2024/02/18 06:08:04;;;;;;;;;;;;;;;12.96;100.00;102805.38;5099600;28;1271;-81
2024/02/18 06:10:30;;;;;;;;;;;;;;;12.93;100.00;102803.72;5100825;28;751;-81
2024/02/18 06:12:56;;;;;;;;;;;;;;;12.92;100.00;102802.00;5099693;28;833;-81
2024/02/18 06:15:22;;;;;;;;;;;;;;;12.78;100.00;102792.97;5100150;28;826;-81
2024/02/18 06:17:48;;;;;;;;;;;;;;;12.97;100.00;102787.38;5099025;28;1875;-81
2024/02/18 06:20:16;;;;;;;;;;;;;;;12.97;100.00;102782.84;5101086;28;963;-81
2024/02/18 06:22:42;;;;;;;;;;;;;;;12.97;100.00;102785.53;5099867;28;803;-81
2024/02/18 06:25:08;;;;;;;;;;;;;;;12.97;100.00;102779.28;5099898;28;814;-81
2024/02/18 06:27:35;;;;;;;;;;;;;;;13.01;100.00;102772.78;5100649;28;1287;-81
2024/02/18 06:30:08;;;;;;;;;;;;;;;13.00;100.00;102774.63;5100471;28;806;-81
2024/02/18 06:32:34;;;;;;;;;;;;;;;13.01;100.00;102764.69;5098654;28;947;-81
2024/02/18 06:35:02;;;;;;;;;;;;;;;13.03;100.00;102762.78;5099917;28;731;-81
2024/02/18 06:37:28;;;;;;;;;;;;;;;13.04;100.00;102757.28;5100139;28;1963;-81
2024/02/18 06:39:54;;;;;;;;;;;;;;;12.92;100.00;102753.50;5098763;28;919;-81
2024/02/18 06:42:20;;;;;;;;;;;;;;;12.81;100.00;102758.69;5100562;28;874;-81
2024/02/18 06:44:46;;;;;;;;;;;;;;;12.82;100.00;102755.03;5098539;28;959;-81
2024/02/18 06:47:12;;;;;;;;;;;;;;;12.83;100.00;102751.38;5116186;27;1306;-81
2024/02/18 06:49:38;;;;;;;;;;;;;;;12.91;100.00;102748.22;5099622;28;863;-81
2024/02/18 06:52:04;;;;;;;;;;;;;;;12.82;100.00;102751.47;5100772;28;811;-81
2024/02/18 06:54:30;;;;;;;;;;;;;;;12.90;100.00;102743.81;5116013;28;817;-81
2024/02/18 06:56:56;;;;;;;;;;;;;;;12.86;100.00;102742.22;5116350;27;1192;-81
2024/02/18 06:59:22;;;;;;;;;;;;;;;12.91;100.00;102734.75;5101190;28;1882;-81
2024/02/18 07:01:48;;;;;;;;;;;;;;;12.82;100.00;102736.16;5100460;28;912;-81
2024/02/18 07:04:14;;;;;;;;;;;;;;;12.71;100.00;102733.25;5117165;27;866;-81
2024/02/18 07:06:41;;;;;;;;;;;;;;;12.67;100.00;102730.81;5100748;28;1184;-81
2024/02/18 07:09:06;;;;;;;;;;;;;;;12.72;100.00;102724.22;5101913;28;905;-81
2024/02/18 07:11:33;;;;;;;;;;;;;;;12.75;100.00;102726.72;5100892;28;856;-81
2024/02/18 07:13:59;;;;;;;;;;;;;;;12.60;100.00;102715.03;5101382;28;833;-81
2024/02/18 07:16:25;;;;;;;;;;;;;;;12.74;100.00;102714.22;5099977;28;1173;-81
2024/02/18 07:18:51;;;;;;;;;;;;;;;12.74;100.00;102711.53;5101601;28;1934;-81
2024/02/18 07:21:17;;;;;;;;;;;;;;;12.72;100.00;102707.19;5100925;28;715;-81
2024/02/18 07:23:46;;;;;;;;;;;;;;;12.75;100.00;102704.31;5117545;27;865;-81
2024/02/18 07:26:14;;;;;;;;;;;;;;;12.74;100.00;102710.66;5116749;28;1268;-81
2024/02/18 07:28:41;;;;;;;;;;;;;;;12.70;100.00;102695.66;5101605;28;850;-81
2024/02/18 07:31:07;;;;;;;;;;;;;;;12.66;100.00;102702.16;5100725;28;1177;-81
2024/02/18 07:33:35;;;;;;;;;;;;;;;12.54;100.00;102698.38;5118399;28;1114;-81
2024/02/18 07:36:01;;;;;;;;;;;;;;;12.50;100.00;102700.41;5100864;28;1192;-81
2024/02/18 07:38:27;;;;;;;;;;;;;;;12.55;100.00;102700.09;5101887;28;1917;-81
2024/02/18 07:40:54;;;;;;;;;;;;;;;12.74;100.00;102687.28;5100138;28;799;-81
2024/02/18 07:43:20;;;;;;;;;;;;;;;12.73;100.00;102696.31;5099118;28;867;-81
2024/02/18 07:45:47;;;;;;;;;;;;;;;12.49;100.00;102687.91;5099597;28;1276;-81
2024/02/18 07:48:13;;;;;;;;;;;;;;;12.64;100.00;102697.75;5099862;28;811;-81
2024/02/18 07:50:39;;;;;;;;;;;;;;;12.60;100.00;102681.88;5099382;28;764;-81
2024/02/18 07:53:05;;;;;;;;;;;;;;;12.68;100.00;102678.69;5116852;28;873;-81
2024/02/18 07:55:32;;;;;;;;;;;;;;;12.72;100.00;102681.13;5099799;28;794;-81
2024/02/18 07:57:58;;;;;;;;;;;;;;;12.58;100.00;102678.38;5116421;28;1964;-81
2024/02/18 08:00:24;;;;;;;;;;;;;;;12.52;100.00;102676.06;5098907;28;768;-80
2024/02/18 08:02:50;;;;;;;;;;;;;;;12.64;100.00;102680.72;5097724;28;3285;-82
2024/02/18 08:05:16;;;;;;;;;;;;;;;12.60;100.00;102676.50;5096575;28;3871;-80
2024/02/18 08:07:43;;;;;;;;;;;;;;;12.55;100.00;102678.56;5099311;28;1307;-80
2024/02/18 08:10:09;;;;;;;;;;;;;;;12.49;100.00;102678.97;5097961;28;3654;-81
2024/02/18 08:12:35;;;;;;;;;;;;;;;12.51;100.00;102672.53;5090528;28;1413;-81
2024/02/18 08:15:01;;;;;;;;;;;;;;;12.53;100.00;102672.41;5100991;28;799;-80
2024/02/18 08:17:27;;;;;;;;;;;;;;;12.71;100.00;102675.84;5088060;28;1479;-80
2024/02/18 08:19:53;;;;;;;;;;;;;;;12.63;100.00;102665.53;5080076;28;1870;-81
2024/02/18 08:22:19;;;;;;;;;;;;;;;12.55;100.00;102668.66;5083266;28;3395;-82
2024/02/18 08:24:45;;;;;;;;;;;;;;;12.58;100.00;102657.72;5078692;28;834;-81
2024/02/18 08:27:11;;;;;;;;;;;;;;;12.60;100.00;102657.66;5080083;28;1420;-81
2024/02/18 08:29:39;;;;;;;;;;;;;;;12.53;100.00;102651.75;5091867;28;1394;-81
2024/02/18 08:32:06;;;;;;;;;;;;;;;12.54;100.00;102656.16;5099305;28;1074;-81
2024/02/18 08:34:32;;;;;;;;;;;;;;;12.71;100.00;102651.59;5098567;28;889;-81
2024/02/18 08:36:58;;;;;;;;;;;;;;;12.67;100.00;102650.03;5102514;28;1307;-81
2024/02/18 08:39:24;;;;;;;;;;;;;;;12.68;100.00;102649.09;5093257;28;2006;-81
2024/02/18 08:41:50;;;;;;;;;;;;;;;12.71;100.00;102643.53;5083413;28;893;-79
2024/02/18 08:44:17;;;;;;;;;;;;;;;12.79;100.00;102639.41;5083368;28;756;-79
2024/02/18 08:46:43;;;;;;;;;;;;;;;12.70;100.00;102631.03;5082742;28;1208;-81
2024/02/18 08:49:10;;;;;;;;;;;;;;;12.50;100.00;102643.00;5082982;28;870;-81
2024/02/18 08:51:39;;;;;;;;;;;;;;;12.59;100.00;102626.31;5085261;28;791;-82
2024/02/18 08:54:06;;;;;;;;;;;;;;;12.59;100.00;102619.09;5085035;28;814;-81
2024/02/18 08:56:32;;;;;;;;;;;;;;;12.66;100.00;102624.09;5085083;28;1465;-81
2024/02/18 08:58:58;;;;;;;;;;;;;;;12.64;100.00;102626.88;5101464;28;2662;-81
2024/02/18 09:01:24;;;;;;;;;;;;;;;12.63;100.00;102617.94;5103232;27;927;-79
2024/02/18 09:03:52;;;;;;;;;;;;;;;12.63;100.00;102627.84;5109039;28;1180;-79
2024/02/18 09:06:18;;;;;;;;;;;;;;;12.47;100.00;102610.88;5123148;28;1180;-79
2024/02/18 09:08:44;;;;;;;;;;;;;;;12.48;100.00;102605.38;5123732;28;897;-79
2024/02/18 09:11:10;;;;;;;;;;;;;;;12.55;100.00;102608.59;5119914;28;857;-80
2024/02/18 09:13:36;;;;;;;;;;;;;;;12.60;100.00;102603.81;5102761;28;795;-80
2024/02/18 09:16:03;;;;;;;;;;;;;;;12.61;100.00;102603.69;5103252;28;1283;-80
2024/02/18 09:18:29;;;;;;;;;;;;;;;12.54;100.00;102598.78;5102182;28;1933;-80
2024/02/18 09:20:55;;;;;;;;;;;;;;;12.56;100.00;102592.34;5120010;27;950;-80
2024/02/18 09:23:21;;;;;;;;;;;;;;;12.49;100.00;102587.44;5103616;28;849;-80
2024/02/18 09:25:47;;;;;;;;;;;;;;;12.43;100.00;102588.66;5103184;28;1260;-80
2024/02/18 09:28:14;;;;;;;;;;;;;;;12.56;100.00;102592.34;5118853;28;795;-80
2024/02/18 09:30:40;;;;;;;;;;;;;;;12.54;100.00;102582.63;5118569;28;904;-80
2024/02/18 09:33:07;;;;;;;;;;;;;;;12.59;100.00;102581.41;5102575;28;1044;-80
2024/02/18 09:35:33;;;;;;;;;;;;;;;12.61;100.00;102575.91;5101399;28;885;-80
2024/02/18 09:38:00;;;;;;;;;;;;;;;12.53;100.00;102575.50;5102083;28;1980;-80
2024/02/18 09:40:26;;;;;;;;;;;;;;;12.49;100.00;102579.38;5101621;28;739;-80
2024/02/18 09:42:54;;;;;;;;;;;;;;;12.50;100.00;102570.34;5101512;28;807;-80
2024/02/18 09:45:28;;;;;;;;;;;;;;;12.55;100.00;102568.22;5100921;28;818;-80
2024/02/18 09:47:57;;;;;;;;;;;;;;;12.51;100.00;102566.66;5101750;28;1299;-80
2024/02/18 09:50:23;;;;;;;;;;;;;;;12.64;100.00;102564.94;5102076;28;787;-80
2024/02/18 09:52:50;;;;;;;;;;;;;;;12.55;100.00;102555.63;5101831;28;739;-80
2024/02/18 09:55:17;;;;;;;;;;;;;;;12.62;100.00;102558.81;5102227;28;878;-81
2024/02/18 09:57:43;;;;;;;;;;;;;;;12.58;100.00;102568.88;5118207;27;1224;-80
2024/02/18 10:00:09;;;;;;;;;;;;;;;12.60;100.00;102552.66;5102570;28;1898;-81
2024/02/18 10:02:36;;;;;;;;;;;;;;;12.44;100.00;102559.94;5118460;27;764;-80
2024/02/18 10:05:03;;;;;;;;;;;;;;;12.40;100.00;102548.50;5102336;28;900;-79
2024/02/18 10:07:32;;;;;;;;;;;;;;;12.45;100.00;102550.88;5090057;28;4659;-79
2024/02/18 10:10:04;;;;;;;;;;;;;;;12.51;100.00;102539.75;5101881;28;803;-78
2024/02/18 10:12:30;;;;;;;;;;;;;;;12.44;100.00;102554.53;5092832;28;4195;-79
2024/02/18 10:15:03;;;;;;;;;;;;;;;12.46;100.00;102545.41;5081695;28;803;-79
2024/02/18 10:17:31;;;;;;;;;;;;;;;12.51;100.00;102548.69;5082093;28;1343;-79
2024/02/18 10:19:57;;;;;;;;;;;;;;;12.49;100.00;102536.31;5097419;28;1951;-79
2024/02/18 10:22:24;;;;;;;;;;;;;;;12.49;100.00;102537.16;5100516;28;907;-79
2024/02/18 10:24:51;;;;;;;;;;;;;;;12.56;100.00;102534.94;5100797;28;3454;-80
2024/02/18 10:27:18;;;;;;;;;;;;;;;12.64;100.00;102529.94;5100727;28;1277;-79
2024/02/18 10:29:47;;;;;;;;;;;;;;;12.54;100.00;102528.78;5116684;27;863;-79
2024/02/18 10:32:17;;;;;;;;;;;;;;;12.62;100.00;102530.06;5101275;28;822;-79
2024/02/18 10:34:44;;;;;;;;;;;;;;;12.71;100.00;102522.38;5099153;28;867;-80
2024/02/18 10:37:21;;;;;;;;;;;;;;;12.84;100.00;102518.78;5089112;28;2043;-79
2024/02/18 10:39:50;;;;;;;;;;;;;;;12.81;100.00;102513.59;5084182;28;1870;-79
2024/02/18 10:42:18;;;;;;;;;;;;;;;12.69;100.00;102511.69;5099666;28;861;-79
2024/02/18 10:44:49;;;;;;;;;;;;;;;12.68;100.00;102504.56;5098956;28;864;-79
2024/02/18 10:47:16;;;;;;;;;;;;;;;12.71;100.00;102499.00;5099879;28;1342;-79
2024/02/18 10:49:50;;;;;;;;;;;;;;;12.62;100.00;102494.19;5102366;28;731;-79
2024/02/18 10:52:38;;;;;;;;;;;;;;;12.77;100.00;102487.81;5092196;28;3686;-81
2024/02/18 10:55:29;;;;;;;;;;;;;;;12.76;100.00;102477.16;5082963;28;1466;-81
2024/02/18 10:58:15;;;;;;;;;;;;;;;12.74;100.00;102489.84;5110045;28;3701;-81
2024/02/18 11:00:45;;;;;;;;;;;;;;;12.55;100.00;102474.00;5114583;28;905;-82
2024/02/18 11:03:21;;;;;;;;;;;;;;;12.65;100.00;102467.06;5098583;28;815;-83
2024/02/18 11:05:50;;;;;;;;;;;;;;;12.70;100.00;102461.41;5099139;28;1347;-80
2024/02/18 11:08:17;;;;;;;;;;;;;;;12.57;100.00;102458.59;5106397;28;1390;-81
2024/02/18 11:10:44;;;;;;;;;;;;;;;12.44;100.00;102450.44;5100459;28;4330;-82
2024/02/18 11:13:13;;;;;;;;;;;;;;;12.58;100.00;102452.25;5100494;28;825;-81
2024/02/18 11:15:39;;;;;;;;;;;;;;;12.64;100.00;102449.19;5099502;28;775;-81
2024/02/18 11:18:05;;;;;;;;;;;;;;;12.76;100.00;102436.75;5100169;28;1212;-81
2024/02/18 11:20:32;;;;;;;;;;;;;;;12.80;100.00;102433.78;5098599;28;1964;-81
2024/02/18 11:22:59;;;;;;;;;;;;;;;12.82;100.00;102421.09;5098781;28;720;-80
2024/02/18 11:25:25;;;;;;;;;;;;;;;12.72;100.00;102429.84;5095095;28;896;-80
2024/02/18 11:27:51;;;;;;;;;;;;;;;12.84;100.00;102416.44;5076706;28;1213;-80
2024/02/18 11:30:17;;;;;;;;;;;;;;;12.76;100.00;102409.84;5078769;28;887;-80
2024/02/18 11:32:43;;;;;;;;;;;;;;;12.42;100.00;102403.06;5078720;28;862;-80
2024/02/18 11:35:11;;;;;;;;;;;;;;;12.67;100.00;102394.28;5078064;28;1134;-80
2024/02/18 11:37:38;;;;;;;;;;;;;;;12.45;100.00;102386.72;5114428;28;1224;-80
2024/02/18 11:40:06;;;;;;;;;;;;;;;12.46;100.00;102383.06;5096221;28;1938;-80
2024/02/18 11:42:38;;;;;;;;;;;;;;;12.53;100.00;102382.56;5094491;28;1426;-80
2024/02/18 11:45:05;;;;;;;;;;;;;;;12.63;100.00;102380.16;5095244;28;3228;-80
2024/02/18 11:47:35;;;;;;;;;;;;;;;12.49;100.00;102366.72;5077110;28;1283;-83
2024/02/18 11:50:04;;;;;;;;;;;;;;;12.52;100.00;102370.09;5075398;28;860;-83
2024/02/18 11:52:30;;;;;;;;;;;;;;;12.48;100.00;102354.22;5075520;28;803;-80
2024/02/18 11:54:57;;;;;;;;;;;;;;;12.56;100.00;102352.75;5090246;28;3517;-80
2024/02/18 11:57:23;;;;;;;;;;;;;;;12.48;100.00;102354.22;5094850;28;3611;-80
2024/02/18 11:59:49;;;;;;;;;;;;;;;12.57;100.00;102346.41;5097326;28;3563;-80
2024/02/18 12:02:20;;;;;;;;;;;;;;;12.68;100.00;102347.53;5081750;28;835;-78
2024/02/18 12:04:48;;;;;;;;;;;;;;;12.59;100.00;102344.50;5088936;28;1063;-79
2024/02/18 12:07:16;;;;;;;;;;;;;;;12.42;100.00;102338.47;5100522;28;1295;-79
2024/02/18 12:09:42;;;;;;;;;;;;;;;12.55;100.00;102334.00;5097616;28;843;-78
2024/02/18 12:12:09;;;;;;;;;;;;;;;12.53;100.00;102319.81;5098604;28;3539;-79
2024/02/18 12:14:47;;;;;;;;;;;;;;;12.46;100.00;102318.47;5104203;28;716;-83
2024/02/18 12:17:16;;;;;;;;;;;;;;;12.46;100.00;102321.16;5098206;28;1228;-83
2024/02/18 12:19:42;;;;;;;;;;;;;;;12.50;100.00;102317.31;5083635;28;1886;-83
2024/02/18 12:22:08;;;;;;;;;;;;;;;12.46;100.00;102297.78;5083276;28;897;-83
2024/02/18 12:24:34;;;;;;;;;;;;;;;12.34;100.00;102302.16;5085520;28;1391;-80
2024/02/18 12:27:01;;;;;;;;;;;;;;;12.38;100.00;102299.25;5083938;28;1201;-79
2024/02/18 12:29:27;;;;;;;;;;;;;;;12.35;100.00;102289.56;5083772;28;877;-80
2024/02/18 12:31:53;;;;;;;;;;;;;;;12.16;100.00;102291.72;5084319;28;930;-83
2024/02/18 12:34:19;;;;;;;;;;;;;;;12.41;100.00;102277.53;5103449;28;827;-83
2024/02/18 12:36:46;;;;;;;;;;;;;;;12.38;100.00;102272.34;5101269;28;1295;-83
2024/02/18 12:39:12;;;;;;;;;;;;;;;12.29;100.00;102268.41;5101946;28;1883;-83
2024/02/18 12:41:38;;;;;;;;;;;;;;;12.32;100.00;102263.72;5103030;28;739;-82